sensor_id;sensor_type;location;lat;lon;timestamp;P1;durP1;ratioP1;P2;durP2;ratioP2
33495;SDS011;19836;55.812;37.560;2022-08-21T00:00:34;28.65;;;22.80;;
33495;SDS011;19836;55.812;37.560;2022-08-21T00:03:06;28.98;;;22.42;;
33495;SDS011;19836;55.812;37.560;2022-08-21T00:05:36;33.20;;;23.00;;
33495;SDS011;19836;55.812;37.560;2022-08-21T00:08:04;28.30;;;22.73;;
33495;SDS011;19836;55.812;37.560;2022-08-21T00:10:31;27.23;;;22.40;;
33495;SDS011;19836;55.812;37.560;2022-08-21T00:12:58;27.02;;;22.00;;
33495;SDS011;19836;55.812;37.560;2022-08-21T00:15:27;33.42;;;23.63;;
33495;SDS011;19836;55.812;37.560;2022-08-21T00:17:57;31.70;;;23.55;;
33495;SDS011;19836;55.812;37.560;2022-08-21T00:20:24;30.38;;;23.67;;
33495;SDS011;19836;55.812;37.560;2022-08-21T00:22:50;34.53;;;24.60;;
33495;SDS011;19836;55.812;37.560;2022-08-21T00:25:17;31.60;;;23.42;;
33495;SDS011;19836;55.812;37.560;2022-08-21T00:27:44;38.65;;;23.40;;
33495;SDS011;19836;55.812;37.560;2022-08-21T00:30:20;26.98;;;22.33;;
33495;SDS011;19836;55.812;37.560;2022-08-21T00:32:48;28.23;;;23.08;;
33495;SDS011;19836;55.812;37.560;2022-08-21T00:35:15;28.58;;;21.73;;
33495;SDS011;19836;55.812;37.560;2022-08-21T00:37:42;30.90;;;22.02;;
33495;SDS011;19836;55.812;37.560;2022-08-21T00:40:10;33.28;;;23.25;;
33495;SDS011;19836;55.812;37.560;2022-08-21T00:42:38;29.98;;;22.02;;
33495;SDS011;19836;55.812;37.560;2022-08-21T00:45:05;27.70;;;21.42;;
33495;SDS011;19836;55.812;37.560;2022-08-21T00:47:31;27.27;;;22.02;;
33495;SDS011;19836;55.812;37.560;2022-08-21T00:49:57;26.52;;;20.92;;
33495;SDS011;19836;55.812;37.560;2022-08-21T00:52:25;27.10;;;21.95;;
33495;SDS011;19836;55.812;37.560;2022-08-21T00:54:54;27.50;;;21.30;;
33495;SDS011;19836;55.812;37.560;2022-08-21T00:57:24;28.65;;;21.88;;
33495;SDS011;19836;55.812;37.560;2022-08-21T00:59:54;28.00;;;21.73;;
33495;SDS011;19836;55.812;37.560;2022-08-21T01:02:23;28.80;;;21.52;;
33495;SDS011;19836;55.812;37.560;2022-08-21T01:04:49;26.45;;;21.95;;
33495;SDS011;19836;55.812;37.560;2022-08-21T01:07:15;25.73;;;20.38;;
33495;SDS011;19836;55.812;37.560;2022-08-21T01:09:41;29.77;;;21.50;;
33495;SDS011;19836;55.812;37.560;2022-08-21T01:12:08;25.42;;;21.77;;
33495;SDS011;19836;55.812;37.560;2022-08-21T01:14:35;27.05;;;21.40;;
33495;SDS011;19836;55.812;37.560;2022-08-21T01:17:02;26.48;;;21.38;;
33495;SDS011;19836;55.812;37.560;2022-08-21T01:19:28;25.08;;;20.92;;
33495;SDS011;19836;55.812;37.560;2022-08-21T01:22:08;26.27;;;21.17;;
33495;SDS011;19836;55.812;37.560;2022-08-21T01:24:35;27.67;;;21.23;;
33495;SDS011;19836;55.812;37.560;2022-08-21T01:27:01;24.90;;;20.52;;
33495;SDS011;19836;55.812;37.560;2022-08-21T01:32:04;26.25;;;21.42;;
33495;SDS011;19836;55.812;37.560;2022-08-21T01:34:34;27.55;;;20.95;;
33495;SDS011;19836;55.812;37.560;2022-08-21T01:37:03;30.95;;;21.20;;
33495;SDS011;19836;55.812;37.560;2022-08-21T01:39:30;27.90;;;21.45;;
33495;SDS011;19836;55.812;37.560;2022-08-21T01:42:01;27.13;;;20.50;;
33495;SDS011;19836;55.812;37.560;2022-08-21T01:44:29;26.92;;;19.98;;
33495;SDS011;19836;55.812;37.560;2022-08-21T01:46:56;28.00;;;20.83;;
33495;SDS011;19836;55.812;37.560;2022-08-21T01:49:24;26.33;;;20.27;;
33495;SDS011;19836;55.812;37.560;2022-08-21T01:51:50;25.88;;;20.05;;
33495;SDS011;19836;55.812;37.560;2022-08-21T01:54:17;26.73;;;20.42;;
33495;SDS011;19836;55.812;37.560;2022-08-21T01:56:47;27.20;;;20.48;;
33495;SDS011;19836;55.812;37.560;2022-08-21T01:59:15;24.60;;;20.63;;
33495;SDS011;19836;55.812;37.560;2022-08-21T02:01:42;27.27;;;20.38;;
33495;SDS011;19836;55.812;37.560;2022-08-21T02:04:09;30.52;;;19.92;;
33495;SDS011;19836;55.812;37.560;2022-08-21T02:06:36;24.85;;;19.58;;
33495;SDS011;19836;55.812;37.560;2022-08-21T02:09:03;27.25;;;20.52;;
33495;SDS011;19836;55.812;37.560;2022-08-21T02:11:31;25.38;;;20.00;;
33495;SDS011;19836;55.812;37.560;2022-08-21T02:13:57;29.20;;;20.02;;
33495;SDS011;19836;55.812;37.560;2022-08-21T02:16:24;24.67;;;19.65;;
33495;SDS011;19836;55.812;37.560;2022-08-21T02:18:51;27.27;;;20.17;;
33495;SDS011;19836;55.812;37.560;2022-08-21T02:21:18;23.67;;;18.63;;
33495;SDS011;19836;55.812;37.560;2022-08-21T02:23:45;25.70;;;19.15;;
33495;SDS011;19836;55.812;37.560;2022-08-21T02:26:11;23.60;;;18.00;;
33495;SDS011;19836;55.812;37.560;2022-08-21T02:28:38;28.42;;;19.95;;
33495;SDS011;19836;55.812;37.560;2022-08-21T02:31:05;28.30;;;19.08;;
33495;SDS011;19836;55.812;37.560;2022-08-21T02:33:33;24.88;;;18.40;;
33495;SDS011;19836;55.812;37.560;2022-08-21T02:36:00;24.65;;;19.35;;
33495;SDS011;19836;55.812;37.560;2022-08-21T02:38:28;22.55;;;18.63;;
33495;SDS011;19836;55.812;37.560;2022-08-21T02:41:04;24.95;;;18.52;;
33495;SDS011;19836;55.812;37.560;2022-08-21T02:43:31;25.92;;;18.80;;
33495;SDS011;19836;55.812;37.560;2022-08-21T02:45:57;25.92;;;19.58;;
33495;SDS011;19836;55.812;37.560;2022-08-21T02:48:25;24.70;;;18.48;;
33495;SDS011;19836;55.812;37.560;2022-08-21T02:50:57;25.20;;;18.58;;
33495;SDS011;19836;55.812;37.560;2022-08-21T02:53:28;24.98;;;20.13;;
33495;SDS011;19836;55.812;37.560;2022-08-21T02:55:56;22.98;;;19.80;;
33495;SDS011;19836;55.812;37.560;2022-08-21T02:58:24;24.80;;;19.20;;
33495;SDS011;19836;55.812;37.560;2022-08-21T03:00:58;28.73;;;20.83;;
33495;SDS011;19836;55.812;37.560;2022-08-21T03:03:25;26.98;;;19.85;;
33495;SDS011;19836;55.812;37.560;2022-08-21T03:05:52;23.40;;;18.95;;
33495;SDS011;19836;55.812;37.560;2022-08-21T03:08:18;26.17;;;20.67;;
33495;SDS011;19836;55.812;37.560;2022-08-21T03:10:47;25.13;;;19.80;;
33495;SDS011;19836;55.812;37.560;2022-08-21T03:15:45;26.67;;;20.25;;
33495;SDS011;19836;55.812;37.560;2022-08-21T03:18:11;26.25;;;20.13;;
33495;SDS011;19836;55.812;37.560;2022-08-21T03:20:38;27.45;;;20.13;;
33495;SDS011;19836;55.812;37.560;2022-08-21T03:23:06;27.40;;;21.00;;
33495;SDS011;19836;55.812;37.560;2022-08-21T03:25:33;25.08;;;20.17;;
33495;SDS011;19836;55.812;37.560;2022-08-21T03:28:00;25.98;;;19.98;;
33495;SDS011;19836;55.812;37.560;2022-08-21T03:30:27;24.23;;;19.92;;
33495;SDS011;19836;55.812;37.560;2022-08-21T03:32:58;26.85;;;21.88;;
33495;SDS011;19836;55.812;37.560;2022-08-21T03:35:25;27.15;;;21.20;;
33495;SDS011;19836;55.812;37.560;2022-08-21T03:37:53;27.30;;;20.98;;
33495;SDS011;19836;55.812;37.560;2022-08-21T03:40:19;29.17;;;21.17;;
33495;SDS011;19836;55.812;37.560;2022-08-21T03:42:46;23.52;;;20.40;;
33495;SDS011;19836;55.812;37.560;2022-08-21T03:45:14;26.20;;;21.08;;
33495;SDS011;19836;55.812;37.560;2022-08-21T03:47:54;27.35;;;21.35;;
33495;SDS011;19836;55.812;37.560;2022-08-21T03:50:23;26.10;;;20.98;;
33495;SDS011;19836;55.812;37.560;2022-08-21T03:52:50;29.35;;;21.35;;
33495;SDS011;19836;55.812;37.560;2022-08-21T03:55:16;24.00;;;20.38;;
33495;SDS011;19836;55.812;37.560;2022-08-21T03:57:42;27.80;;;20.40;;
33495;SDS011;19836;55.812;37.560;2022-08-21T04:00:09;27.40;;;20.98;;
33495;SDS011;19836;55.812;37.560;2022-08-21T04:02:37;27.95;;;21.65;;
33495;SDS011;19836;55.812;37.560;2022-08-21T04:05:04;27.83;;;22.02;;
33495;SDS011;19836;55.812;37.560;2022-08-21T04:07:30;26.40;;;20.20;;
33495;SDS011;19836;55.812;37.560;2022-08-21T04:09:56;28.13;;;21.73;;
33495;SDS011;19836;55.812;37.560;2022-08-21T04:12:22;28.40;;;21.27;;
33495;SDS011;19836;55.812;37.560;2022-08-21T04:14:49;26.33;;;20.17;;
33495;SDS011;19836;55.812;37.560;2022-08-21T04:17:17;27.02;;;21.17;;
33495;SDS011;19836;55.812;37.560;2022-08-21T04:19:43;26.63;;;21.65;;
33495;SDS011;19836;55.812;37.560;2022-08-21T04:22:09;28.42;;;21.45;;
33495;SDS011;19836;55.812;37.560;2022-08-21T04:24:35;27.20;;;21.73;;
33495;SDS011;19836;55.812;37.560;2022-08-21T04:27:01;27.88;;;22.70;;
33495;SDS011;19836;55.812;37.560;2022-08-21T04:29:27;25.92;;;21.00;;
33495;SDS011;19836;55.812;37.560;2022-08-21T04:31:52;25.70;;;21.52;;
33495;SDS011;19836;55.812;37.560;2022-08-21T04:34:18;30.45;;;22.92;;
33495;SDS011;19836;55.812;37.560;2022-08-21T04:36:44;27.05;;;21.67;;
33495;SDS011;19836;55.812;37.560;2022-08-21T04:39:10;28.45;;;23.73;;
33495;SDS011;19836;55.812;37.560;2022-08-21T04:41:36;31.52;;;23.40;;
33495;SDS011;19836;55.812;37.560;2022-08-21T04:44:02;28.95;;;22.60;;
33495;SDS011;19836;55.812;37.560;2022-08-21T04:46:29;28.33;;;23.30;;
33495;SDS011;19836;55.812;37.560;2022-08-21T04:48:55;28.13;;;23.27;;
33495;SDS011;19836;55.812;37.560;2022-08-21T04:51:32;29.48;;;24.23;;
33495;SDS011;19836;55.812;37.560;2022-08-21T04:54:00;30.58;;;23.38;;
33495;SDS011;19836;55.812;37.560;2022-08-21T04:56:35;29.08;;;24.35;;
33495;SDS011;19836;55.812;37.560;2022-08-21T04:59:10;31.88;;;25.00;;
33495;SDS011;19836;55.812;37.560;2022-08-21T05:01:41;32.13;;;24.83;;
33495;SDS011;19836;55.812;37.560;2022-08-21T05:04:10;31.15;;;24.13;;
33495;SDS011;19836;55.812;37.560;2022-08-21T05:06:38;33.47;;;25.05;;
33495;SDS011;19836;55.812;37.560;2022-08-21T05:09:08;31.58;;;24.75;;
33495;SDS011;19836;55.812;37.560;2022-08-21T05:11:34;31.25;;;26.05;;
33495;SDS011;19836;55.812;37.560;2022-08-21T05:14:03;30.48;;;25.15;;
33495;SDS011;19836;55.812;37.560;2022-08-21T05:16:29;30.35;;;25.50;;
33495;SDS011;19836;55.812;37.560;2022-08-21T05:18:55;32.30;;;25.02;;
33495;SDS011;19836;55.812;37.560;2022-08-21T05:21:21;34.95;;;27.67;;
33495;SDS011;19836;55.812;37.560;2022-08-21T05:23:47;32.95;;;25.45;;
33495;SDS011;19836;55.812;37.560;2022-08-21T05:26:13;34.83;;;26.95;;
33495;SDS011;19836;55.812;37.560;2022-08-21T05:28:39;37.20;;;26.98;;
33495;SDS011;19836;55.812;37.560;2022-08-21T05:31:06;32.95;;;24.75;;
33495;SDS011;19836;55.812;37.560;2022-08-21T05:33:33;35.55;;;26.92;;
33495;SDS011;19836;55.812;37.560;2022-08-21T05:35:59;29.83;;;25.73;;
33495;SDS011;19836;55.812;37.560;2022-08-21T05:38:25;33.08;;;27.02;;
33495;SDS011;19836;55.812;37.560;2022-08-21T05:40:52;34.67;;;27.17;;
33495;SDS011;19836;55.812;37.560;2022-08-21T05:43:19;32.97;;;27.52;;
33495;SDS011;19836;55.812;37.560;2022-08-21T05:45:46;31.98;;;26.45;;
33495;SDS011;19836;55.812;37.560;2022-08-21T05:48:16;33.63;;;26.33;;
33495;SDS011;19836;55.812;37.560;2022-08-21T05:50:47;32.95;;;26.45;;
33495;SDS011;19836;55.812;37.560;2022-08-21T05:53:15;35.17;;;27.40;;
33495;SDS011;19836;55.812;37.560;2022-08-21T05:55:42;33.55;;;27.00;;
33495;SDS011;19836;55.812;37.560;2022-08-21T05:58:08;34.90;;;27.08;;
33495;SDS011;19836;55.812;37.560;2022-08-21T06:00:34;35.67;;;27.45;;
33495;SDS011;19836;55.812;37.560;2022-08-21T06:03:00;32.28;;;26.42;;
33495;SDS011;19836;55.812;37.560;2022-08-21T06:05:26;32.20;;;25.75;;
33495;SDS011;19836;55.812;37.560;2022-08-21T06:07:52;31.17;;;26.52;;
33495;SDS011;19836;55.812;37.560;2022-08-21T06:10:18;34.88;;;26.52;;
33495;SDS011;19836;55.812;37.560;2022-08-21T06:12:44;33.00;;;26.02;;
33495;SDS011;19836;55.812;37.560;2022-08-21T06:15:10;33.42;;;27.15;;
33495;SDS011;19836;55.812;37.560;2022-08-21T06:17:40;34.27;;;25.97;;
33495;SDS011;19836;55.812;37.560;2022-08-21T06:20:06;31.58;;;26.33;;
33495;SDS011;19836;55.812;37.560;2022-08-21T06:22:32;31.17;;;25.35;;
33495;SDS011;19836;55.812;37.560;2022-08-21T06:24:58;35.03;;;26.02;;
33495;SDS011;19836;55.812;37.560;2022-08-21T06:27:24;30.85;;;24.83;;
33495;SDS011;19836;55.812;37.560;2022-08-21T06:29:50;29.83;;;24.20;;
33495;SDS011;19836;55.812;37.560;2022-08-21T06:32:16;31.58;;;25.00;;
33495;SDS011;19836;55.812;37.560;2022-08-21T06:34:41;30.60;;;24.75;;
33495;SDS011;19836;55.812;37.560;2022-08-21T06:37:07;29.73;;;24.63;;
33495;SDS011;19836;55.812;37.560;2022-08-21T06:39:36;31.40;;;25.85;;
33495;SDS011;19836;55.812;37.560;2022-08-21T06:42:04;36.83;;;26.33;;
33495;SDS011;19836;55.812;37.560;2022-08-21T06:44:32;31.55;;;26.70;;
33495;SDS011;19836;55.812;37.560;2022-08-21T06:46:57;30.00;;;24.85;;
33495;SDS011;19836;55.812;37.560;2022-08-21T06:49:26;33.42;;;24.98;;
33495;SDS011;19836;55.812;37.560;2022-08-21T06:51:52;32.05;;;27.33;;
33495;SDS011;19836;55.812;37.560;2022-08-21T06:54:18;32.85;;;25.05;;
33495;SDS011;19836;55.812;37.560;2022-08-21T06:56:47;33.40;;;24.17;;
33495;SDS011;19836;55.812;37.560;2022-08-21T06:59:13;28.48;;;23.27;;
33495;SDS011;19836;55.812;37.560;2022-08-21T07:01:38;29.63;;;23.23;;
33495;SDS011;19836;55.812;37.560;2022-08-21T07:04:04;35.67;;;27.20;;
33495;SDS011;19836;55.812;37.560;2022-08-21T07:06:30;28.85;;;21.80;;
33495;SDS011;19836;55.812;37.560;2022-08-21T07:08:56;28.48;;;22.65;;
33495;SDS011;19836;55.812;37.560;2022-08-21T07:11:23;29.00;;;21.52;;
33495;SDS011;19836;55.812;37.560;2022-08-21T07:13:50;30.17;;;22.52;;
33495;SDS011;19836;55.812;37.560;2022-08-21T07:16:18;28.60;;;21.80;;
33495;SDS011;19836;55.812;37.560;2022-08-21T07:18:44;31.08;;;22.00;;
33495;SDS011;19836;55.812;37.560;2022-08-21T07:21:11;27.45;;;21.70;;
33495;SDS011;19836;55.812;37.560;2022-08-21T07:23:39;27.98;;;21.67;;
33495;SDS011;19836;55.812;37.560;2022-08-21T07:26:09;30.35;;;21.95;;
33495;SDS011;19836;55.812;37.560;2022-08-21T07:28:35;27.92;;;21.63;;
33495;SDS011;19836;55.812;37.560;2022-08-21T07:31:02;27.85;;;20.70;;
33495;SDS011;19836;55.812;37.560;2022-08-21T07:33:30;27.20;;;20.50;;
33495;SDS011;19836;55.812;37.560;2022-08-21T07:35:58;25.27;;;18.90;;
33495;SDS011;19836;55.812;37.560;2022-08-21T07:38:25;27.23;;;19.52;;
33495;SDS011;19836;55.812;37.560;2022-08-21T07:40:52;23.23;;;17.63;;
33495;SDS011;19836;55.812;37.560;2022-08-21T07:43:20;21.42;;;16.98;;
33495;SDS011;19836;55.812;37.560;2022-08-21T07:45:47;23.05;;;17.45;;
33495;SDS011;19836;55.812;37.560;2022-08-21T07:48:15;23.83;;;18.00;;
33495;SDS011;19836;55.812;37.560;2022-08-21T07:50:44;24.60;;;18.23;;
33495;SDS011;19836;55.812;37.560;2022-08-21T07:53:14;26.90;;;18.45;;
33495;SDS011;19836;55.812;37.560;2022-08-21T07:55:40;25.77;;;17.98;;
33495;SDS011;19836;55.812;37.560;2022-08-21T07:58:06;22.60;;;17.88;;
33495;SDS011;19836;55.812;37.560;2022-08-21T08:00:33;21.55;;;17.85;;
33495;SDS011;19836;55.812;37.560;2022-08-21T08:02:59;26.00;;;18.70;;
33495;SDS011;19836;55.812;37.560;2022-08-21T08:05:26;21.60;;;18.05;;
33495;SDS011;19836;55.812;37.560;2022-08-21T08:07:55;22.13;;;17.73;;
33495;SDS011;19836;55.812;37.560;2022-08-21T08:10:22;20.17;;;17.02;;
33495;SDS011;19836;55.812;37.560;2022-08-21T08:12:49;24.48;;;17.92;;
33495;SDS011;19836;55.812;37.560;2022-08-21T08:15:17;24.80;;;18.27;;
33495;SDS011;19836;55.812;37.560;2022-08-21T08:17:46;26.33;;;18.02;;
33495;SDS011;19836;55.812;37.560;2022-08-21T08:20:13;21.70;;;15.55;;
33495;SDS011;19836;55.812;37.560;2022-08-21T08:22:42;19.95;;;15.25;;
33495;SDS011;19836;55.812;37.560;2022-08-21T08:25:09;18.48;;;14.55;;
33495;SDS011;19836;55.812;37.560;2022-08-21T08:27:39;20.37;;;15.07;;
33495;SDS011;19836;55.812;37.560;2022-08-21T08:30:06;19.48;;;15.00;;
33495;SDS011;19836;55.812;37.560;2022-08-21T08:32:33;21.90;;;14.80;;
33495;SDS011;19836;55.812;37.560;2022-08-21T08:35:00;19.00;;;15.20;;
33495;SDS011;19836;55.812;37.560;2022-08-21T08:37:26;20.50;;;15.13;;
33495;SDS011;19836;55.812;37.560;2022-08-21T08:39:52;20.08;;;14.75;;
33495;SDS011;19836;55.812;37.560;2022-08-21T08:42:25;18.48;;;14.73;;
33495;SDS011;19836;55.812;37.560;2022-08-21T08:45:03;23.67;;;16.33;;
33495;SDS011;19836;55.812;37.560;2022-08-21T08:47:44;22.45;;;14.80;;
33495;SDS011;19836;55.812;37.560;2022-08-21T08:50:19;19.75;;;14.93;;
33495;SDS011;19836;55.812;37.560;2022-08-21T08:52:56;20.75;;;13.77;;
33495;SDS011;19836;55.812;37.560;2022-08-21T08:58:06;18.83;;;14.93;;
33495;SDS011;19836;55.812;37.560;2022-08-21T09:00:49;18.45;;;14.70;;
33495;SDS011;19836;55.812;37.560;2022-08-21T09:03:16;21.38;;;14.10;;
33495;SDS011;19836;55.812;37.560;2022-08-21T09:05:46;17.60;;;12.25;;
33495;SDS011;19836;55.812;37.560;2022-08-21T09:08:36;16.77;;;11.57;;
33495;SDS011;19836;55.812;37.560;2022-08-21T09:11:10;14.93;;;11.95;;
33495;SDS011;19836;55.812;37.560;2022-08-21T09:13:52;16.88;;;11.52;;
33495;SDS011;19836;55.812;37.560;2022-08-21T09:19:36;16.60;;;10.35;;
33495;SDS011;19836;55.812;37.560;2022-08-21T09:25:21;13.85;;;9.00;;
33495;SDS011;19836;55.812;37.560;2022-08-21T09:27:50;12.07;;;9.10;;
33495;SDS011;19836;55.812;37.560;2022-08-21T09:30:17;17.38;;;10.13;;
33495;SDS011;19836;55.812;37.560;2022-08-21T09:32:44;21.08;;;11.30;;
33495;SDS011;19836;55.812;37.560;2022-08-21T09:35:15;18.00;;;12.40;;
33495;SDS011;19836;55.812;37.560;2022-08-21T09:37:48;19.90;;;12.48;;
33495;SDS011;19836;55.812;37.560;2022-08-21T09:40:32;16.55;;;12.43;;
33495;SDS011;19836;55.812;37.560;2022-08-21T09:43:05;16.25;;;12.70;;
33495;SDS011;19836;55.812;37.560;2022-08-21T09:45:32;18.33;;;13.00;;
33495;SDS011;19836;55.812;37.560;2022-08-21T09:48:12;17.85;;;12.80;;
33495;SDS011;19836;55.812;37.560;2022-08-21T09:50:39;37.65;;;33.70;;
33495;SDS011;19836;55.812;37.560;2022-08-21T09:53:14;23.35;;;14.90;;
33495;SDS011;19836;55.812;37.560;2022-08-21T09:58:32;14.88;;;9.45;;
33495;SDS011;19836;55.812;37.560;2022-08-21T10:01:02;14.68;;;9.82;;
33495;SDS011;19836;55.812;37.560;2022-08-21T10:03:39;11.55;;;9.20;;
33495;SDS011;19836;55.812;37.560;2022-08-21T10:06:06;12.55;;;9.10;;
33495;SDS011;19836;55.812;37.560;2022-08-21T10:08:40;15.68;;;11.25;;
33495;SDS011;19836;55.812;37.560;2022-08-21T10:13:56;12.75;;;9.85;;
33495;SDS011;19836;55.812;37.560;2022-08-21T10:16:35;14.80;;;9.63;;
33495;SDS011;19836;55.812;37.560;2022-08-21T10:24:32;13.57;;;8.98;;
33495;SDS011;19836;55.812;37.560;2022-08-21T10:30:08;15.00;;;10.35;;
33495;SDS011;19836;55.812;37.560;2022-08-21T10:35:27;13.38;;;8.18;;
33495;SDS011;19836;55.812;37.560;2022-08-21T10:43:39;9.95;;;8.10;;
33495;SDS011;19836;55.812;37.560;2022-08-21T10:48:53;14.15;;;6.63;;
33495;SDS011;19836;55.812;37.560;2022-08-21T10:51:28;12.43;;;7.38;;
33495;SDS011;19836;55.812;37.560;2022-08-21T10:57:05;8.60;;;5.47;;
33495;SDS011;19836;55.812;37.560;2022-08-21T10:59:43;11.98;;;5.78;;
33495;SDS011;19836;55.812;37.560;2022-08-21T11:02:29;10.63;;;5.75;;
33495;SDS011;19836;55.812;37.560;2022-08-21T11:05:30;10.10;;;5.65;;
33495;SDS011;19836;55.812;37.560;2022-08-21T11:08:10;10.25;;;6.10;;
33495;SDS011;19836;55.812;37.560;2022-08-21T11:18:47;6.65;;;4.85;;
33495;SDS011;19836;55.812;37.560;2022-08-21T11:21:24;9.90;;;4.20;;
33495;SDS011;19836;55.812;37.560;2022-08-21T11:29:48;8.82;;;4.50;;
33495;SDS011;19836;55.812;37.560;2022-08-21T11:34:58;13.18;;;5.72;;
33495;SDS011;19836;55.812;37.560;2022-08-21T11:40:05;11.50;;;5.57;;
33495;SDS011;19836;55.812;37.560;2022-08-21T11:45:51;8.48;;;5.75;;
33495;SDS011;19836;55.812;37.560;2022-08-21T11:51:19;12.20;;;6.95;;
33495;SDS011;19836;55.812;37.560;2022-08-21T11:53:55;12.52;;;6.85;;
33495;SDS011;19836;55.812;37.560;2022-08-21T11:56:42;13.77;;;7.28;;
33495;SDS011;19836;55.812;37.560;2022-08-21T12:02:06;13.15;;;7.90;;
33495;SDS011;19836;55.812;37.560;2022-08-21T12:04:47;12.98;;;7.78;;
33495;SDS011;19836;55.812;37.560;2022-08-21T12:07:33;11.65;;;7.18;;
33495;SDS011;19836;55.812;37.560;2022-08-21T12:10:09;13.25;;;7.53;;
33495;SDS011;19836;55.812;37.560;2022-08-21T12:12:38;11.48;;;6.85;;
33495;SDS011;19836;55.812;37.560;2022-08-21T12:17:52;15.35;;;6.40;;
33495;SDS011;19836;55.812;37.560;2022-08-21T12:20:43;9.93;;;6.20;;
33495;SDS011;19836;55.812;37.560;2022-08-21T12:24:05;9.95;;;6.22;;
33495;SDS011;19836;55.812;37.560;2022-08-21T12:26:25;9.63;;;6.18;;
33495;SDS011;19836;55.812;37.560;2022-08-21T12:29:16;16.80;;;12.80;;
33495;SDS011;19836;55.812;37.560;2022-08-21T12:34:47;14.18;;;10.68;;
33495;SDS011;19836;55.812;37.560;2022-08-21T12:40:00;8.70;;;5.78;;
33495;SDS011;19836;55.812;37.560;2022-08-21T12:42:37;9.43;;;6.13;;
33495;SDS011;19836;55.812;37.560;2022-08-21T12:45:14;9.00;;;5.75;;
33495;SDS011;19836;55.812;37.560;2022-08-21T12:47:49;9.27;;;5.30;;
33495;SDS011;19836;55.812;37.560;2022-08-21T12:50:28;10.73;;;5.65;;
33495;SDS011;19836;55.812;37.560;2022-08-21T12:53:12;12.50;;;5.68;;
33495;SDS011;19836;55.812;37.560;2022-08-21T12:55:49;8.07;;;5.20;;
33495;SDS011;19836;55.812;37.560;2022-08-21T12:58:22;8.80;;;5.72;;
33495;SDS011;19836;55.812;37.560;2022-08-21T13:00:50;10.52;;;5.82;;
33495;SDS011;19836;55.812;37.560;2022-08-21T13:05:46;11.63;;;6.28;;
33495;SDS011;19836;55.812;37.560;2022-08-21T13:08:13;8.90;;;6.38;;
33495;SDS011;19836;55.812;37.560;2022-08-21T13:10:40;11.60;;;6.40;;
33495;SDS011;19836;55.812;37.560;2022-08-21T13:13:08;12.48;;;5.95;;
33495;SDS011;19836;55.812;37.560;2022-08-21T13:15:40;10.95;;;7.38;;
33495;SDS011;19836;55.812;37.560;2022-08-21T13:18:07;11.30;;;7.07;;
33495;SDS011;19836;55.812;37.560;2022-08-21T13:20:38;10.82;;;6.65;;
33495;SDS011;19836;55.812;37.560;2022-08-21T13:23:18;10.15;;;6.28;;
33495;SDS011;19836;55.812;37.560;2022-08-21T13:25:48;13.13;;;5.78;;
33495;SDS011;19836;55.812;37.560;2022-08-21T13:28:15;21.73;;;9.98;;
33495;SDS011;19836;55.812;37.560;2022-08-21T13:30:41;10.93;;;6.07;;
33495;SDS011;19836;55.812;37.560;2022-08-21T13:33:10;10.60;;;6.20;;
33495;SDS011;19836;55.812;37.560;2022-08-21T13:38:14;11.82;;;6.20;;
33495;SDS011;19836;55.812;37.560;2022-08-21T13:40:44;9.85;;;6.45;;
33495;SDS011;19836;55.812;37.560;2022-08-21T13:43:15;13.75;;;6.63;;
33495;SDS011;19836;55.812;37.560;2022-08-21T13:45:51;13.80;;;6.00;;
33495;SDS011;19836;55.812;37.560;2022-08-21T13:48:19;9.50;;;6.30;;
33495;SDS011;19836;55.812;37.560;2022-08-21T13:50:47;8.70;;;6.25;;
33495;SDS011;19836;55.812;37.560;2022-08-21T13:53:33;12.55;;;8.02;;
33495;SDS011;19836;55.812;37.560;2022-08-21T13:58:53;13.93;;;7.03;;
33495;SDS011;19836;55.812;37.560;2022-08-21T14:01:22;12.88;;;6.93;;
33495;SDS011;19836;55.812;37.560;2022-08-21T14:04:22;13.65;;;6.78;;
33495;SDS011;19836;55.812;37.560;2022-08-21T14:06:50;11.73;;;7.28;;
33495;SDS011;19836;55.812;37.560;2022-08-21T14:11:54;14.48;;;7.95;;
33495;SDS011;19836;55.812;37.560;2022-08-21T14:14:24;12.40;;;8.25;;
33495;SDS011;19836;55.812;37.560;2022-08-21T14:16:54;17.10;;;14.57;;
33495;SDS011;19836;55.812;37.560;2022-08-21T14:19:26;14.88;;;10.20;;
33495;SDS011;19836;55.812;37.560;2022-08-21T14:22:21;12.82;;;9.88;;
33495;SDS011;19836;55.812;37.560;2022-08-21T14:24:49;12.27;;;10.55;;
33495;SDS011;19836;55.812;37.560;2022-08-21T14:27:16;17.80;;;10.38;;
33495;SDS011;19836;55.812;37.560;2022-08-21T14:29:44;18.73;;;13.82;;
33495;SDS011;19836;55.812;37.560;2022-08-21T14:32:15;14.05;;;12.15;;
33495;SDS011;19836;55.812;37.560;2022-08-21T14:34:48;12.10;;;9.82;;
33495;SDS011;19836;55.812;37.560;2022-08-21T14:37:14;16.38;;;10.77;;
33495;SDS011;19836;55.812;37.560;2022-08-21T14:39:40;13.10;;;8.38;;
33495;SDS011;19836;55.812;37.560;2022-08-21T14:42:06;13.95;;;8.63;;
33495;SDS011;19836;55.812;37.560;2022-08-21T14:44:35;13.63;;;8.35;;
33495;SDS011;19836;55.812;37.560;2022-08-21T14:47:02;11.43;;;8.02;;
33495;SDS011;19836;55.812;37.560;2022-08-21T14:49:29;14.30;;;7.45;;
33495;SDS011;19836;55.812;37.560;2022-08-21T14:51:55;11.45;;;7.38;;
33495;SDS011;19836;55.812;37.560;2022-08-21T14:54:23;11.23;;;5.70;;
33495;SDS011;19836;55.812;37.560;2022-08-21T14:56:53;6.90;;;5.18;;
33495;SDS011;19836;55.812;37.560;2022-08-21T14:59:20;8.88;;;6.18;;
33495;SDS011;19836;55.812;37.560;2022-08-21T15:01:46;6.68;;;3.85;;
33495;SDS011;19836;55.812;37.560;2022-08-21T15:04:13;6.40;;;3.75;;
33495;SDS011;19836;55.812;37.560;2022-08-21T15:06:39;7.50;;;4.50;;
33495;SDS011;19836;55.812;37.560;2022-08-21T15:09:04;13.40;;;8.82;;
33495;SDS011;19836;55.812;37.560;2022-08-21T15:11:31;8.10;;;5.07;;
33495;SDS011;19836;55.812;37.560;2022-08-21T15:13:59;10.40;;;3.90;;
33495;SDS011;19836;55.812;37.560;2022-08-21T15:16:28;6.30;;;3.72;;
33495;SDS011;19836;55.812;37.560;2022-08-21T15:18:56;5.70;;;3.72;;
33495;SDS011;19836;55.812;37.560;2022-08-21T15:21:22;8.65;;;4.20;;
33495;SDS011;19836;55.812;37.560;2022-08-21T15:23:48;7.80;;;4.18;;
33495;SDS011;19836;55.812;37.560;2022-08-21T15:26:14;6.28;;;2.97;;
33495;SDS011;19836;55.812;37.560;2022-08-21T15:28:40;10.32;;;2.67;;
33495;SDS011;19836;55.812;37.560;2022-08-21T15:31:09;8.93;;;2.60;;
33495;SDS011;19836;55.812;37.560;2022-08-21T15:33:35;9.00;;;5.88;;
33495;SDS011;19836;55.812;37.560;2022-08-21T15:36:01;6.40;;;2.53;;
33495;SDS011;19836;55.812;37.560;2022-08-21T15:38:27;5.07;;;2.65;;
33495;SDS011;19836;55.812;37.560;2022-08-21T15:40:54;5.85;;;2.35;;
33495;SDS011;19836;55.812;37.560;2022-08-21T15:43:23;4.25;;;1.58;;
33495;SDS011;19836;55.812;37.560;2022-08-21T15:45:52;4.30;;;1.90;;
33495;SDS011;19836;55.812;37.560;2022-08-21T15:48:18;3.45;;;1.30;;
33495;SDS011;19836;55.812;37.560;2022-08-21T15:50:44;3.15;;;1.45;;
33495;SDS011;19836;55.812;37.560;2022-08-21T15:53:10;3.45;;;1.10;;
33495;SDS011;19836;55.812;37.560;2022-08-21T15:55:36;4.10;;;0.95;;